sensor_id;sensor_type;location;lat;lon;timestamp;temperature;humidity
5392;DHT22;2719;53.624;9.786;2024-02-14T00:02:20;7.40;99.90
5392;DHT22;2719;53.624;9.786;2024-02-14T00:04:48;7.40;99.90
5392;DHT22;2719;53.624;9.786;2024-02-14T00:07:15;7.30;99.90
5392;DHT22;2719;53.624;9.786;2024-02-14T00:09:41;7.30;99.90
5392;DHT22;2719;53.624;9.786;2024-02-14T00:12:08;7.20;99.90
5392;DHT22;2719;53.624;9.786;2024-02-14T00:14:36;7.20;99.90
5392;DHT22;2719;53.624;9.786;2024-02-14T00:17:03;7.20;99.90
5392;DHT22;2719;53.624;9.786;2024-02-14T00:19:30;7.30;99.90
5392;DHT22;2719;53.624;9.786;2024-02-14T00:21:58;7.20;99.90
5392;DHT22;2719;53.624;9.786;2024-02-14T00:24:25;7.20;99.90
5392;DHT22;2719;53.624;9.786;2024-02-14T00:26:53;7.20;99.90
5392;DHT22;2719;53.624;9.786;2024-02-14T00:29:21;7.20;99.90
5392;DHT22;2719;53.624;9.786;2024-02-14T00:31:48;7.10;99.90
5392;DHT22;2719;53.624;9.786;2024-02-14T00:34:15;7.10;99.90
5392;DHT22;2719;53.624;9.786;2024-02-14T00:36:41;7.10;99.90
5392;DHT22;2719;53.624;9.786;2024-02-14T00:39:09;7.20;99.90
5392;DHT22;2719;53.624;9.786;2024-02-14T00:41:36;7.10;99.90
5392;DHT22;2719;53.624;9.786;2024-02-14T00:44:03;7.20;99.90
5392;DHT22;2719;53.624;9.786;2024-02-14T00:46:30;7.20;99.90
5392;DHT22;2719;53.624;9.786;2024-02-14T00:48:56;7.10;99.90
5392;DHT22;2719;53.624;9.786;2024-02-14T00:51:23;7.20;99.90
5392;DHT22;2719;53.624;9.786;2024-02-14T00:53:50;7.10;99.90
5392;DHT22;2719;53.624;9.786;2024-02-14T00:56:18;7.10;99.90
5392;DHT22;2719;53.624;9.786;2024-02-14T00:58:44;7.10;99.90
5392;DHT22;2719;53.624;9.786;2024-02-14T01:01:11;7.10;99.90
5392;DHT22;2719;53.624;9.786;2024-02-14T01:03:38;7.20;99.90
5392;DHT22;2719;53.624;9.786;2024-02-14T01:06:05;7.10;99.90
5392;DHT22;2719;53.624;9.786;2024-02-14T01:08:31;7.10;99.90
5392;DHT22;2719;53.624;9.786;2024-02-14T01:10:59;7.10;99.90
5392;DHT22;2719;53.624;9.786;2024-02-14T01:13:27;7.10;99.90
5392;DHT22;2719;53.624;9.786;2024-02-14T01:15:53;7.10;99.90
5392;DHT22;2719;53.624;9.786;2024-02-14T01:18:20;7.10;99.90
5392;DHT22;2719;53.624;9.786;2024-02-14T01:20:47;7.10;99.90
5392;DHT22;2719;53.624;9.786;2024-02-14T01:23:13;7.10;99.90
5392;DHT22;2719;53.624;9.786;2024-02-14T01:25:40;7.10;99.90
5392;DHT22;2719;53.624;9.786;2024-02-14T01:28:07;7.10;99.90
5392;DHT22;2719;53.624;9.786;2024-02-14T01:30:36;7.00;99.90
5392;DHT22;2719;53.624;9.786;2024-02-14T01:33:03;7.00;99.90
5392;DHT22;2719;53.624;9.786;2024-02-14T01:35:30;7.00;99.90
5392;DHT22;2719;53.624;9.786;2024-02-14T01:37:56;7.00;99.90
5392;DHT22;2719;53.624;9.786;2024-02-14T01:40:23;6.90;99.90
5392;DHT22;2719;53.624;9.786;2024-02-14T01:42:50;7.00;99.90
5392;DHT22;2719;53.624;9.786;2024-02-14T01:45:17;7.00;99.90
5392;DHT22;2719;53.624;9.786;2024-02-14T01:47:46;7.10;99.90
5392;DHT22;2719;53.624;9.786;2024-02-14T01:50:13;7.00;99.90
5392;DHT22;2719;53.624;9.786;2024-02-14T01:52:41;7.00;99.90
5392;DHT22;2719;53.624;9.786;2024-02-14T01:55:11;7.00;99.90
5392;DHT22;2719;53.624;9.786;2024-02-14T01:57:39;7.00;99.90
5392;DHT22;2719;53.624;9.786;2024-02-14T02:00:07;7.00;99.90
5392;DHT22;2719;53.624;9.786;2024-02-14T02:02:34;7.00;99.90
5392;DHT22;2719;53.624;9.786;2024-02-14T02:05:04;7.00;99.90
5392;DHT22;2719;53.624;9.786;2024-02-14T02:07:32;7.00;99.90
5392;DHT22;2719;53.624;9.786;2024-02-14T02:09:59;6.90;99.90
5392;DHT22;2719;53.624;9.786;2024-02-14T02:12:27;7.00;99.90
5392;DHT22;2719;53.624;9.786;2024-02-14T02:14:53;7.00;99.90
5392;DHT22;2719;53.624;9.786;2024-02-14T02:17:20;7.00;99.90
5392;DHT22;2719;53.624;9.786;2024-02-14T02:19:47;7.00;99.90
5392;DHT22;2719;53.624;9.786;2024-02-14T02:22:15;7.10;99.90
5392;DHT22;2719;53.624;9.786;2024-02-14T02:24:43;7.00;99.90
5392;DHT22;2719;53.624;9.786;2024-02-14T02:27:10;7.00;99.90
5392;DHT22;2719;53.624;9.786;2024-02-14T02:29:39;7.00;99.90
5392;DHT22;2719;53.624;9.786;2024-02-14T02:32:05;7.00;99.90
5392;DHT22;2719;53.624;9.786;2024-02-14T02:34:35;7.00;99.90
5392;DHT22;2719;53.624;9.786;2024-02-14T02:37:04;7.00;99.90
5392;DHT22;2719;53.624;9.786;2024-02-14T02:39:33;7.00;99.90
5392;DHT22;2719;53.624;9.786;2024-02-14T02:42:03;7.00;99.90
5392;DHT22;2719;53.624;9.786;2024-02-14T02:44:31;7.00;99.90
5392;DHT22;2719;53.624;9.786;2024-02-14T02:46:57;7.00;99.90
5392;DHT22;2719;53.624;9.786;2024-02-14T02:49:26;7.00;99.90
5392;DHT22;2719;53.624;9.786;2024-02-14T02:51:54;7.00;99.90
5392;DHT22;2719;53.624;9.786;2024-02-14T02:54:21;7.00;99.90
5392;DHT22;2719;53.624;9.786;2024-02-14T02:56:48;7.00;99.90
5392;DHT22;2719;53.624;9.786;2024-02-14T02:59:16;7.00;99.90
5392;DHT22;2719;53.624;9.786;2024-02-14T03:01:43;7.00;99.90
5392;DHT22;2719;53.624;9.786;2024-02-14T03:04:11;7.00;99.90
5392;DHT22;2719;53.624;9.786;2024-02-14T03:06:38;7.00;99.90
5392;DHT22;2719;53.624;9.786;2024-02-14T03:09:05;7.00;99.90
5392;DHT22;2719;53.624;9.786;2024-02-14T03:11:33;7.00;99.90
5392;DHT22;2719;53.624;9.786;2024-02-14T03:14:01;7.00;99.90
5392;DHT22;2719;53.624;9.786;2024-02-14T03:16:29;7.00;99.90
5392;DHT22;2719;53.624;9.786;2024-02-14T03:18:56;7.00;99.90
5392;DHT22;2719;53.624;9.786;2024-02-14T03:21:24;7.00;99.90
5392;DHT22;2719;53.624;9.786;2024-02-14T03:23:50;7.00;99.90
5392;DHT22;2719;53.624;9.786;2024-02-14T03:26:19;7.00;99.90
5392;DHT22;2719;53.624;9.786;2024-02-14T03:28:46;7.00;99.90
5392;DHT22;2719;53.624;9.786;2024-02-14T03:31:14;7.00;99.90
5392;DHT22;2719;53.624;9.786;2024-02-14T03:33:42;7.00;99.90
5392;DHT22;2719;53.624;9.786;2024-02-14T03:36:09;7.00;99.90
5392;DHT22;2719;53.624;9.786;2024-02-14T03:38:35;7.10;99.90
5392;DHT22;2719;53.624;9.786;2024-02-14T03:41:02;7.10;99.90
5392;DHT22;2719;53.624;9.786;2024-02-14T03:43:29;7.10;99.90
5392;DHT22;2719;53.624;9.786;2024-02-14T03:45:56;7.10;99.90
5392;DHT22;2719;53.624;9.786;2024-02-14T03:48:23;7.10;99.90
5392;DHT22;2719;53.624;9.786;2024-02-14T03:50:51;7.10;99.90
5392;DHT22;2719;53.624;9.786;2024-02-14T03:53:17;7.10;99.90
5392;DHT22;2719;53.624;9.786;2024-02-14T03:55:44;7.10;99.90
5392;DHT22;2719;53.624;9.786;2024-02-14T03:58:11;6.90;99.90
5392;DHT22;2719;53.624;9.786;2024-02-14T04:00:39;7.00;99.90
5392;DHT22;2719;53.624;9.786;2024-02-14T04:03:06;7.10;99.90
5392;DHT22;2719;53.624;9.786;2024-02-14T04:05:32;7.10;99.90
5392;DHT22;2719;53.624;9.786;2024-02-14T04:08:00;7.10;99.90
5392;DHT22;2719;53.624;9.786;2024-02-14T04:10:28;7.10;99.90
5392;DHT22;2719;53.624;9.786;2024-02-14T04:12:55;7.10;99.90
5392;DHT22;2719;53.624;9.786;2024-02-14T04:15:21;7.10;99.90
5392;DHT22;2719;53.624;9.786;2024-02-14T04:17:48;7.10;99.90
5392;DHT22;2719;53.624;9.786;2024-02-14T04:20:15;7.10;99.90
5392;DHT22;2719;53.624;9.786;2024-02-14T04:22:42;7.00;99.90
5392;DHT22;2719;53.624;9.786;2024-02-14T04:25:10;7.10;99.90
5392;DHT22;2719;53.624;9.786;2024-02-14T04:27:37;7.10;99.90
5392;DHT22;2719;53.624;9.786;2024-02-14T04:30:05;7.00;99.90
5392;DHT22;2719;53.624;9.786;2024-02-14T04:32:32;7.10;99.90
5392;DHT22;2719;53.624;9.786;2024-02-14T04:34:58;7.10;99.90
5392;DHT22;2719;53.624;9.786;2024-02-14T04:37:25;7.10;99.90
5392;DHT22;2719;53.624;9.786;2024-02-14T04:39:52;7.00;99.90
5392;DHT22;2719;53.624;9.786;2024-02-14T04:42:19;7.10;99.90
5392;DHT22;2719;53.624;9.786;2024-02-14T04:44:46;7.00;99.90
5392;DHT22;2719;53.624;9.786;2024-02-14T04:47:13;7.00;99.90
5392;DHT22;2719;53.624;9.786;2024-02-14T04:49:40;7.00;99.90
5392;DHT22;2719;53.624;9.786;2024-02-14T04:52:06;7.00;99.90
5392;DHT22;2719;53.624;9.786;2024-02-14T04:54:33;7.00;99.90
5392;DHT22;2719;53.624;9.786;2024-02-14T04:57:00;7.00;99.90
5392;DHT22;2719;53.624;9.786;2024-02-14T04:59:28;7.00;99.90
5392;DHT22;2719;53.624;9.786;2024-02-14T05:01:55;7.00;99.90
5392;DHT22;2719;53.624;9.786;2024-02-14T05:04:21;7.00;99.90
5392;DHT22;2719;53.624;9.786;2024-02-14T05:06:48;7.00;99.90
5392;DHT22;2719;53.624;9.786;2024-02-14T05:09:15;7.00;99.90
5392;DHT22;2719;53.624;9.786;2024-02-14T05:11:42;7.00;99.90
5392;DHT22;2719;53.624;9.786;2024-02-14T05:14:08;7.00;99.90
5392;DHT22;2719;53.624;9.786;2024-02-14T05:16:36;7.00;99.90
5392;DHT22;2719;53.624;9.786;2024-02-14T05:19:03;7.00;99.90
5392;DHT22;2719;53.624;9.786;2024-02-14T05:21:29;6.90;99.90
5392;DHT22;2719;53.624;9.786;2024-02-14T05:23:56;6.90;99.90
5392;DHT22;2719;53.624;9.786;2024-02-14T05:26:23;6.90;99.90
5392;DHT22;2719;53.624;9.786;2024-02-14T05:28:49;6.90;99.90
5392;DHT22;2719;53.624;9.786;2024-02-14T05:31:16;7.00;99.90
5392;DHT22;2719;53.624;9.786;2024-02-14T05:33:44;7.00;99.90
5392;DHT22;2719;53.624;9.786;2024-02-14T05:36:10;7.00;99.90
5392;DHT22;2719;53.624;9.786;2024-02-14T05:38:37;7.00;99.90
5392;DHT22;2719;53.624;9.786;2024-02-14T05:41:04;7.00;99.90
5392;DHT22;2719;53.624;9.786;2024-02-14T05:43:33;6.90;99.90
5392;DHT22;2719;53.624;9.786;2024-02-14T05:45:59;7.00;99.90
5392;DHT22;2719;53.624;9.786;2024-02-14T05:48:26;6.90;99.90
5392;DHT22;2719;53.624;9.786;2024-02-14T05:50:54;7.00;99.90
5392;DHT22;2719;53.624;9.786;2024-02-14T05:53:20;6.90;99.90
5392;DHT22;2719;53.624;9.786;2024-02-14T05:55:47;6.90;99.90
5392;DHT22;2719;53.624;9.786;2024-02-14T05:58:14;6.90;99.90
5392;DHT22;2719;53.624;9.786;2024-02-14T06:00:41;6.90;99.90
5392;DHT22;2719;53.624;9.786;2024-02-14T06:03:07;6.90;99.90
5392;DHT22;2719;53.624;9.786;2024-02-14T06:05:34;6.90;99.90
5392;DHT22;2719;53.624;9.786;2024-02-14T06:08:02;7.00;99.90
5392;DHT22;2719;53.624;9.786;2024-02-14T06:10:29;6.90;99.90
5392;DHT22;2719;53.624;9.786;2024-02-14T06:12:56;6.90;99.90
5392;DHT22;2719;53.624;9.786;2024-02-14T06:15:23;6.90;99.90
5392;DHT22;2719;53.624;9.786;2024-02-14T06:17:49;6.90;99.90
5392;DHT22;2719;53.624;9.786;2024-02-14T06:20:16;6.90;99.90
5392;DHT22;2719;53.624;9.786;2024-02-14T06:22:42;6.90;99.90
5392;DHT22;2719;53.624;9.786;2024-02-14T06:25:10;6.90;99.90
5392;DHT22;2719;53.624;9.786;2024-02-14T06:27:37;6.90;99.90
5392;DHT22;2719;53.624;9.786;2024-02-14T06:30:04;7.00;99.90
5392;DHT22;2719;53.624;9.786;2024-02-14T06:32:32;7.00;99.90
5392;DHT22;2719;53.624;9.786;2024-02-14T06:34:59;7.00;99.90
5392;DHT22;2719;53.624;9.786;2024-02-14T06:37:25;7.00;99.90
5392;DHT22;2719;53.624;9.786;2024-02-14T06:39:52;7.00;99.90
5392;DHT22;2719;53.624;9.786;2024-02-14T06:42:20;7.00;99.90
5392;DHT22;2719;53.624;9.786;2024-02-14T06:44:46;7.00;99.90
5392;DHT22;2719;53.624;9.786;2024-02-14T06:47:15;7.00;99.90
5392;DHT22;2719;53.624;9.786;2024-02-14T06:49:41;7.00;99.90
5392;DHT22;2719;53.624;9.786;2024-02-14T06:52:08;7.10;99.90
5392;DHT22;2719;53.624;9.786;2024-02-14T06:54:35;7.10;99.90
5392;DHT22;2719;53.624;9.786;2024-02-14T06:57:01;7.20;99.90
5392;DHT22;2719;53.624;9.786;2024-02-14T06:59:29;7.10;99.90
5392;DHT22;2719;53.624;9.786;2024-02-14T07:01:56;7.10;99.90
5392;DHT22;2719;53.624;9.786;2024-02-14T07:04:22;7.10;99.90
5392;DHT22;2719;53.624;9.786;2024-02-14T07:06:51;7.10;99.90
5392;DHT22;2719;53.624;9.786;2024-02-14T07:09:18;7.10;99.90
5392;DHT22;2719;53.624;9.786;2024-02-14T07:11:44;7.20;99.90
5392;DHT22;2719;53.624;9.786;2024-02-14T07:14:12;7.20;99.90
5392;DHT22;2719;53.624;9.786;2024-02-14T07:16:40;7.20;99.90
5392;DHT22;2719;53.624;9.786;2024-02-14T07:19:06;7.20;99.90
5392;DHT22;2719;53.624;9.786;2024-02-14T07:21:33;7.20;99.90
5392;DHT22;2719;53.624;9.786;2024-02-14T07:23:59;7.30;99.90
5392;DHT22;2719;53.624;9.786;2024-02-14T07:26:26;7.30;99.90
5392;DHT22;2719;53.624;9.786;2024-02-14T07:28:53;7.30;99.90
5392;DHT22;2719;53.624;9.786;2024-02-14T07:31:20;7.30;99.90
5392;DHT22;2719;53.624;9.786;2024-02-14T07:33:48;7.30;99.90
5392;DHT22;2719;53.624;9.786;2024-02-14T07:36:18;7.30;99.90
5392;DHT22;2719;53.624;9.786;2024-02-14T07:38:45;7.40;99.90
5392;DHT22;2719;53.624;9.786;2024-02-14T07:41:12;7.40;99.90
5392;DHT22;2719;53.624;9.786;2024-02-14T07:43:38;7.30;99.90
5392;DHT22;2719;53.624;9.786;2024-02-14T07:46:05;7.40;99.90
5392;DHT22;2719;53.624;9.786;2024-02-14T07:48:32;7.40;99.90
5392;DHT22;2719;53.624;9.786;2024-02-14T07:51:00;7.40;99.90
5392;DHT22;2719;53.624;9.786;2024-02-14T07:53:27;7.40;99.90
5392;DHT22;2719;53.624;9.786;2024-02-14T07:55:54;7.40;99.90
5392;DHT22;2719;53.624;9.786;2024-02-14T07:58:20;7.40;99.90
5392;DHT22;2719;53.624;9.786;2024-02-14T08:00:47;7.40;99.90
5392;DHT22;2719;53.624;9.786;2024-02-14T08:03:14;7.30;99.90
5392;DHT22;2719;53.624;9.786;2024-02-14T08:05:40;7.40;99.90
5392;DHT22;2719;53.624;9.786;2024-02-14T08:08:09;7.40;99.90
5392;DHT22;2719;53.624;9.786;2024-02-14T08:10:36;7.40;99.90
5392;DHT22;2719;53.624;9.786;2024-02-14T08:13:02;7.40;99.90
5392;DHT22;2719;53.624;9.786;2024-02-14T08:15:31;7.40;99.90
5392;DHT22;2719;53.624;9.786;2024-02-14T08:17:57;7.40;99.90
5392;DHT22;2719;53.624;9.786;2024-02-14T08:20:24;7.50;99.90
5392;DHT22;2719;53.624;9.786;2024-02-14T08:22:51;7.40;99.90
5392;DHT22;2719;53.624;9.786;2024-02-14T08:25:19;7.50;99.90
5392;DHT22;2719;53.624;9.786;2024-02-14T08:27:46;7.50;99.90
5392;DHT22;2719;53.624;9.786;2024-02-14T08:30:13;7.60;99.90
5392;DHT22;2719;53.624;9.786;2024-02-14T08:32:40;7.50;99.90
5392;DHT22;2719;53.624;9.786;2024-02-14T08:35:07;7.60;99.90
5392;DHT22;2719;53.624;9.786;2024-02-14T08:37:35;7.50;99.90
5392;DHT22;2719;53.624;9.786;2024-02-14T08:40:04;7.60;99.90
5392;DHT22;2719;53.624;9.786;2024-02-14T08:42:32;7.50;99.90
5392;DHT22;2719;53.624;9.786;2024-02-14T08:44:59;7.60;99.90
5392;DHT22;2719;53.624;9.786;2024-02-14T08:47:26;7.60;99.90
5392;DHT22;2719;53.624;9.786;2024-02-14T08:49:52;7.60;99.90
5392;DHT22;2719;53.624;9.786;2024-02-14T08:52:19;7.60;99.90
5392;DHT22;2719;53.624;9.786;2024-02-14T08:54:46;7.60;99.90
5392;DHT22;2719;53.624;9.786;2024-02-14T08:57:13;7.70;99.90
5392;DHT22;2719;53.624;9.786;2024-02-14T08:59:41;7.70;99.90
5392;DHT22;2719;53.624;9.786;2024-02-14T09:02:09;7.70;99.90
5392;DHT22;2719;53.624;9.786;2024-02-14T09:04:36;7.70;99.90
5392;DHT22;2719;53.624;9.786;2024-02-14T09:07:03;7.80;99.90
5392;DHT22;2719;53.624;9.786;2024-02-14T09:09:30;7.80;99.90
5392;DHT22;2719;53.624;9.786;2024-02-14T09:11:57;7.80;99.90
5392;DHT22;2719;53.624;9.786;2024-02-14T09:14:27;7.80;99.90
5392;DHT22;2719;53.624;9.786;2024-02-14T09:16:55;7.90;99.90
5392;DHT22;2719;53.624;9.786;2024-02-14T09:19:23;7.80;99.90
5392;DHT22;2719;53.624;9.786;2024-02-14T09:21:50;7.90;99.90
5392;DHT22;2719;53.624;9.786;2024-02-14T09:24:17;7.90;99.90
5392;DHT22;2719;53.624;9.786;2024-02-14T09:26:43;7.90;99.90
5392;DHT22;2719;53.624;9.786;2024-02-14T09:29:10;8.00;99.90
5392;DHT22;2719;53.624;9.786;2024-02-14T09:31:37;8.00;99.90
5392;DHT22;2719;53.624;9.786;2024-02-14T09:34:05;8.10;99.90
5392;DHT22;2719;53.624;9.786;2024-02-14T09:36:31;8.10;99.90
5392;DHT22;2719;53.624;9.786;2024-02-14T09:38:58;8.10;99.90
5392;DHT22;2719;53.624;9.786;2024-02-14T09:41:28;8.20;99.90
5392;DHT22;2719;53.624;9.786;2024-02-14T09:43:55;8.20;99.90
5392;DHT22;2719;53.624;9.786;2024-02-14T09:46:24;8.30;99.90
5392;DHT22;2719;53.624;9.786;2024-02-14T09:48:50;8.20;99.90
5392;DHT22;2719;53.624;9.786;2024-02-14T09:51:19;8.30;99.90
5392;DHT22;2719;53.624;9.786;2024-02-14T09:53:47;8.30;99.90
5392;DHT22;2719;53.624;9.786;2024-02-14T09:56:15;8.30;99.90
5392;DHT22;2719;53.624;9.786;2024-02-14T09:58:46;8.40;99.90
5392;DHT22;2719;53.624;9.786;2024-02-14T10:01:15;8.40;99.90
5392;DHT22;2719;53.624;9.786;2024-02-14T10:03:42;8.50;99.90
5392;DHT22;2719;53.624;9.786;2024-02-14T10:06:09;8.50;99.90
5392;DHT22;2719;53.624;9.786;2024-02-14T10:08:37;8.50;99.90
5392;DHT22;2719;53.624;9.786;2024-02-14T10:11:04;8.50;99.90
5392;DHT22;2719;53.624;9.786;2024-02-14T10:13:32;8.50;99.90
5392;DHT22;2719;53.624;9.786;2024-02-14T10:16:00;8.60;99.90
5392;DHT22;2719;53.624;9.786;2024-02-14T10:18:27;8.60;99.90
5392;DHT22;2719;53.624;9.786;2024-02-14T10:20:55;8.70;99.90
5392;DHT22;2719;53.624;9.786;2024-02-14T10:23:22;8.70;99.90
5392;DHT22;2719;53.624;9.786;2024-02-14T10:25:52;8.80;99.90
5392;DHT22;2719;53.624;9.786;2024-02-14T10:28:20;8.80;99.90
5392;DHT22;2719;53.624;9.786;2024-02-14T10:30:48;8.90;99.90
5392;DHT22;2719;53.624;9.786;2024-02-14T10:33:16;8.90;99.90
5392;DHT22;2719;53.624;9.786;2024-02-14T10:35:43;8.90;99.90
5392;DHT22;2719;53.624;9.786;2024-02-14T10:38:11;9.00;99.90
5392;DHT22;2719;53.624;9.786;2024-02-14T10:40:38;9.00;99.90
5392;DHT22;2719;53.624;9.786;2024-02-14T10:43:07;9.00;99.90
5392;DHT22;2719;53.624;9.786;2024-02-14T10:45:34;9.10;99.90
5392;DHT22;2719;53.624;9.786;2024-02-14T10:48:01;9.10;99.90
5392;DHT22;2719;53.624;9.786;2024-02-14T10:50:31;9.20;99.90
5392;DHT22;2719;53.624;9.786;2024-02-14T10:53:00;9.10;99.90
5392;DHT22;2719;53.624;9.786;2024-02-14T10:55:30;9.20;99.90
5392;DHT22;2719;53.624;9.786;2024-02-14T10:57:57;9.20;99.90
5392;DHT22;2719;53.624;9.786;2024-02-14T11:00:27;9.20;99.90
5392;DHT22;2719;53.624;9.786;2024-02-14T11:02:55;9.30;99.90
5392;DHT22;2719;53.624;9.786;2024-02-14T11:05:22;9.30;99.90
5392;DHT22;2719;53.624;9.786;2024-02-14T11:07:49;9.40;99.90
5392;DHT22;2719;53.624;9.786;2024-02-14T11:10:19;9.40;99.90
5392;DHT22;2719;53.624;9.786;2024-02-14T11:12:47;9.40;99.90
5392;DHT22;2719;53.624;9.786;2024-02-14T11:15:17;9.50;99.90
5392;DHT22;2719;53.624;9.786;2024-02-14T11:17:45;9.50;99.90
5392;DHT22;2719;53.624;9.786;2024-02-14T11:20:16;9.50;99.90
5392;DHT22;2719;53.624;9.786;2024-02-14T11:22:56;9.60;99.90
5392;DHT22;2719;53.624;9.786;2024-02-14T11:25:28;9.60;99.90
5392;DHT22;2719;53.624;9.786;2024-02-14T11:27:55;9.60;99.90
5392;DHT22;2719;53.624;9.786;2024-02-14T11:30:29;9.70;99.90
5392;DHT22;2719;53.624;9.786;2024-02-14T11:33:10;9.70;99.90
5392;DHT22;2719;53.624;9.786;2024-02-14T11:35:39;9.70;99.90
5392;DHT22;2719;53.624;9.786;2024-02-14T11:38:06;9.80;99.90
5392;DHT22;2719;53.624;9.786;2024-02-14T11:40:33;9.80;99.90
5392;DHT22;2719;53.624;9.786;2024-02-14T11:43:00;9.90;99.90
5392;DHT22;2719;53.624;9.786;2024-02-14T11:45:27;9.90;99.90
5392;DHT22;2719;53.624;9.786;2024-02-14T11:47:54;10.00;99.90
5392;DHT22;2719;53.624;9.786;2024-02-14T11:50:22;10.00;99.90
5392;DHT22;2719;53.624;9.786;2024-02-14T11:52:49;10.00;99.90
5392;DHT22;2719;53.624;9.786;2024-02-14T11:55:17;10.00;99.90
5392;DHT22;2719;53.624;9.786;2024-02-14T11:57:44;10.00;99.90
5392;DHT22;2719;53.624;9.786;2024-02-14T12:00:14;10.00;99.90
5392;DHT22;2719;53.624;9.786;2024-02-14T12:02:41;10.10;99.90
5392;DHT22;2719;53.624;9.786;2024-02-14T12:05:08;10.10;99.90
5392;DHT22;2719;53.624;9.786;2024-02-14T12:07:36;10.10;99.90
5392;DHT22;2719;53.624;9.786;2024-02-14T12:10:03;10.10;99.90
5392;DHT22;2719;53.624;9.786;2024-02-14T12:12:31;10.10;99.90
5392;DHT22;2719;53.624;9.786;2024-02-14T12:15:02;10.20;99.90
5392;DHT22;2719;53.624;9.786;2024-02-14T12:17:29;10.20;99.90
5392;DHT22;2719;53.624;9.786;2024-02-14T12:20:07;10.20;99.90
5392;DHT22;2719;53.624;9.786;2024-02-14T12:22:36;10.20;99.90
5392;DHT22;2719;53.624;9.786;2024-02-14T12:25:05;10.20;99.90
5392;DHT22;2719;53.624;9.786;2024-02-14T12:27:32;10.30;99.90
5392;DHT22;2719;53.624;9.786;2024-02-14T12:29:59;10.30;99.90
5392;DHT22;2719;53.624;9.786;2024-02-14T12:32:25;10.30;99.90
5392;DHT22;2719;53.624;9.786;2024-02-14T12:34:55;10.30;99.90
5392;DHT22;2719;53.624;9.786;2024-02-14T12:37:22;10.40;99.90
5392;DHT22;2719;53.624;9.786;2024-02-14T12:39:50;10.40;99.90
5392;DHT22;2719;53.624;9.786;2024-02-14T12:42:16;10.40;99.90
5392;DHT22;2719;53.624;9.786;2024-02-14T12:44:44;10.40;99.90
5392;DHT22;2719;53.624;9.786;2024-02-14T12:47:10;10.50;99.90
5392;DHT22;2719;53.624;9.786;2024-02-14T12:49:37;10.40;99.90
5392;DHT22;2719;53.624;9.786;2024-02-14T12:52:04;10.50;99.90
5392;DHT22;2719;53.624;9.786;2024-02-14T12:54:30;10.50;99.90
5392;DHT22;2719;53.624;9.786;2024-02-14T12:56:58;10.50;99.90
5392;DHT22;2719;53.624;9.786;2024-02-14T12:59:25;10.50;99.90
5392;DHT22;2719;53.624;9.786;2024-02-14T13:01:51;10.50;99.90
5392;DHT22;2719;53.624;9.786;2024-02-14T13:04:18;10.50;99.90
5392;DHT22;2719;53.624;9.786;2024-02-14T13:06:45;10.50;99.90
5392;DHT22;2719;53.624;9.786;2024-02-14T13:09:13;10.60;99.90
5392;DHT22;2719;53.624;9.786;2024-02-14T13:11:40;10.60;99.90
5392;DHT22;2719;53.624;9.786;2024-02-14T13:14:09;10.60;99.90
5392;DHT22;2719;53.624;9.786;2024-02-14T13:16:36;10.60;99.90
5392;DHT22;2719;53.624;9.786;2024-02-14T13:19:03;10.60;99.90
5392;DHT22;2719;53.624;9.786;2024-02-14T13:21:30;10.60;99.90
5392;DHT22;2719;53.624;9.786;2024-02-14T13:23:57;10.60;99.90
5392;DHT22;2719;53.624;9.786;2024-02-14T13:26:23;10.70;99.90
5392;DHT22;2719;53.624;9.786;2024-02-14T13:28:50;10.70;99.90
5392;DHT22;2719;53.624;9.786;2024-02-14T13:31:18;10.70;99.90
5392;DHT22;2719;53.624;9.786;2024-02-14T13:33:45;10.80;99.90
5392;DHT22;2719;53.624;9.786;2024-02-14T13:36:12;10.70;99.90
5392;DHT22;2719;53.624;9.786;2024-02-14T13:38:40;10.80;99.90
5392;DHT22;2719;53.624;9.786;2024-02-14T13:41:07;10.80;99.90
5392;DHT22;2719;53.624;9.786;2024-02-14T13:43:33;10.80;99.90
5392;DHT22;2719;53.624;9.786;2024-02-14T13:46:00;10.80;99.90
5392;DHT22;2719;53.624;9.786;2024-02-14T13:48:29;10.80;99.90
5392;DHT22;2719;53.624;9.786;2024-02-14T13:50:55;10.80;99.90
5392;DHT22;2719;53.624;9.786;2024-02-14T13:53:22;10.80;99.90
5392;DHT22;2719;53.624;9.786;2024-02-14T13:55:49;10.80;99.90
5392;DHT22;2719;53.624;9.786;2024-02-14T13:58:17;10.90;99.90
5392;DHT22;2719;53.624;9.786;2024-02-14T14:00:44;10.80;99.90
5392;DHT22;2719;53.624;9.786;2024-02-14T14:03:11;10.90;99.90
5392;DHT22;2719;53.624;9.786;2024-02-14T14:05:39;10.90;99.90
5392;DHT22;2719;53.624;9.786;2024-02-14T14:08:06;10.90;99.90
5392;DHT22;2719;53.624;9.786;2024-02-14T14:10:32;10.90;99.90
5392;DHT22;2719;53.624;9.786;2024-02-14T14:12:59;10.90;99.90
5392;DHT22;2719;53.624;9.786;2024-02-14T14:15:26;10.90;99.90
5392;DHT22;2719;53.624;9.786;2024-02-14T14:17:54;10.90;99.90
5392;DHT22;2719;53.624;9.786;2024-02-14T14:20:21;10.90;99.90
5392;DHT22;2719;53.624;9.786;2024-02-14T14:22:49;10.90;99.90
5392;DHT22;2719;53.624;9.786;2024-02-14T14:25:15;10.90;99.90
5392;DHT22;2719;53.624;9.786;2024-02-14T14:27:43;10.90;99.90
5392;DHT22;2719;53.624;9.786;2024-02-14T14:30:11;10.90;99.90
5392;DHT22;2719;53.624;9.786;2024-02-14T14:32:37;10.90;99.90
5392;DHT22;2719;53.624;9.786;2024-02-14T14:35:04;10.90;99.90
5392;DHT22;2719;53.624;9.786;2024-02-14T14:37:32;10.80;99.90
5392;DHT22;2719;53.624;9.786;2024-02-14T14:40:00;10.90;99.90
5392;DHT22;2719;53.624;9.786;2024-02-14T14:42:30;10.80;99.90
5392;DHT22;2719;53.624;9.786;2024-02-14T14:44:57;10.80;99.90
5392;DHT22;2719;53.624;9.786;2024-02-14T14:47:24;10.80;99.90
5392;DHT22;2719;53.624;9.786;2024-02-14T14:49:50;10.80;99.90
5392;DHT22;2719;53.624;9.786;2024-02-14T14:52:17;10.80;99.90
5392;DHT22;2719;53.624;9.786;2024-02-14T14:54:43;10.80;99.90
5392;DHT22;2719;53.624;9.786;2024-02-14T14:57:11;10.80;99.90
5392;DHT22;2719;53.624;9.786;2024-02-14T14:59:40;10.90;99.90
5392;DHT22;2719;53.624;9.786;2024-02-14T15:02:08;10.90;99.90
5392;DHT22;2719;53.624;9.786;2024-02-14T15:04:35;10.80;99.90
5392;DHT22;2719;53.624;9.786;2024-02-14T15:07:05;10.80;99.90
5392;DHT22;2719;53.624;9.786;2024-02-14T15:09:32;10.90;99.90
5392;DHT22;2719;53.624;9.786;2024-02-14T15:11:58;10.90;99.90
5392;DHT22;2719;53.624;9.786;2024-02-14T15:14:26;10.90;99.90
5392;DHT22;2719;53.624;9.786;2024-02-14T15:16:53;10.90;99.90
5392;DHT22;2719;53.624;9.786;2024-02-14T15:19:19;10.80;99.90
5392;DHT22;2719;53.624;9.786;2024-02-14T15:21:47;10.80;99.90
5392;DHT22;2719;53.624;9.786;2024-02-14T15:24:14;10.80;99.90
5392;DHT22;2719;53.624;9.786;2024-02-14T15:26:41;10.80;99.90
5392;DHT22;2719;53.624;9.786;2024-02-14T15:29:16;10.90;99.90
5392;DHT22;2719;53.624;9.786;2024-02-14T15:32:01;10.80;99.90
5392;DHT22;2719;53.624;9.786;2024-02-14T15:34:45;10.90;99.90
5392;DHT22;2719;53.624;9.786;2024-02-14T15:37:12;10.90;99.90
5392;DHT22;2719;53.624;9.786;2024-02-14T15:39:38;10.90;99.90
5392;DHT22;2719;53.624;9.786;2024-02-14T15:42:05;10.90;99.90
5392;DHT22;2719;53.624;9.786;2024-02-14T15:44:32;10.90;99.90
5392;DHT22;2719;53.624;9.786;2024-02-14T15:46:58;10.90;99.90
5392;DHT22;2719;53.624;9.786;2024-02-14T15:49:26;10.90;99.90
5392;DHT22;2719;53.624;9.786;2024-02-14T15:51:53;10.90;99.90
5392;DHT22;2719;53.624;9.786;2024-02-14T15:54:20;10.90;99.90
5392;DHT22;2719;53.624;9.786;2024-02-14T15:56:46;10.90;99.90
5392;DHT22;2719;53.624;9.786;2024-02-14T15:59:13;10.90;99.90
5392;DHT22;2719;53.624;9.786;2024-02-14T16:01:40;10.90;99.90
5392;DHT22;2719;53.624;9.786;2024-02-14T16:04:07;10.90;99.90
5392;DHT22;2719;53.624;9.786;2024-02-14T16:06:35;10.90;99.90
5392;DHT22;2719;53.624;9.786;2024-02-14T16:09:02;10.90;99.90
5392;DHT22;2719;53.624;9.786;2024-02-14T16:11:30;10.90;99.90
5392;DHT22;2719;53.624;9.786;2024-02-14T16:13:57;10.90;99.90
5392;DHT22;2719;53.624;9.786;2024-02-14T16:16:23;10.90;99.90